createdAt,value
2018-09-25T00:01:52.000Z,7.10
2018-09-25T00:03:59.881Z,7.10
2018-09-25T00:06:07.912Z,7.10
2018-09-25T00:08:15.836Z,7.10
2018-09-25T00:10:23.720Z,7.00
2018-09-25T00:12:31.377Z,7.00
2018-09-25T00:14:39.222Z,7.00
2018-09-25T00:16:47.120Z,7.00
2018-09-25T00:18:54.816Z,7.00
2018-09-25T00:21:02.737Z,7.00
2018-09-25T00:23:10.628Z,7.00
2018-09-25T00:25:18.586Z,7.00
2018-09-25T00:27:26.564Z,7.00
2018-09-25T00:29:34.472Z,6.90
2018-09-25T00:31:42.434Z,7.00
2018-09-25T00:33:50.218Z,6.90
2018-09-25T00:35:58.057Z,7.00
2018-09-25T00:38:05.925Z,7.00
2018-09-25T00:40:13.837Z,7.00
2018-09-25T00:42:21.601Z,7.00
2018-09-25T00:44:29.404Z,7.10
2018-09-25T00:46:37.308Z,7.10
2018-09-25T00:48:45.163Z,7.10
2018-09-25T00:50:53.100Z,7.10
2018-09-25T00:53:00.972Z,7.20
2018-09-25T00:55:08.809Z,7.10
2018-09-25T00:57:16.759Z,7.20
2018-09-25T00:59:24.658Z,7.20
2018-09-25T01:01:32.597Z,7.20
2018-09-25T01:03:40.465Z,7.20
2018-09-25T01:05:48.416Z,7.20
2018-09-25T01:07:56.290Z,7.20
2018-09-25T01:10:04.024Z,7.10
2018-09-25T01:12:11.948Z,7.10
2018-09-25T01:14:19.957Z,7.10
2018-09-25T01:16:27.928Z,7.10
2018-09-25T01:18:35.803Z,7.00
2018-09-25T01:20:43.669Z,7.00
2018-09-25T01:22:51.508Z,6.90
2018-09-25T01:24:59.392Z,6.90
2018-09-25T01:27:07.208Z,6.90
2018-09-25T01:29:14.985Z,6.80
2018-09-25T01:31:22.867Z,6.90
2018-09-25T01:33:30.767Z,6.80
2018-09-25T01:35:38.589Z,6.80
2018-09-25T01:37:46.528Z,6.80
2018-09-25T01:39:54.324Z,6.70
2018-09-25T01:42:02.244Z,6.70
2018-09-25T01:44:10.129Z,6.70
2018-09-25T01:46:17.975Z,6.70
2018-09-25T01:48:25.793Z,6.60
2018-09-25T01:50:33.680Z,6.60
2018-09-25T01:52:41.468Z,6.60
2018-09-25T01:54:49.497Z,6.60
2018-09-25T01:56:57.417Z,6.50
2018-09-25T01:59:05.269Z,6.50
2018-09-25T02:01:13.062Z,6.50
2018-09-25T02:03:20.957Z,6.50
2018-09-25T02:05:28.859Z,6.50
2018-09-25T02:07:36.647Z,6.50
2018-09-25T02:09:44.404Z,6.50
2018-09-25T02:11:52.249Z,6.50
2018-09-25T02:14:00.125Z,6.50
2018-09-25T02:16:08.088Z,6.50
2018-09-25T02:18:15.913Z,6.50
2018-09-25T02:20:23.841Z,6.50
2018-09-25T02:22:31.742Z,6.50
2018-09-25T02:24:39.516Z,6.40
2018-09-25T02:26:47.410Z,6.40
2018-09-25T02:28:55.244Z,6.40
2018-09-25T02:31:02.993Z,6.40
2018-09-25T02:33:10.849Z,6.40
2018-09-25T02:35:18.518Z,6.40
2018-09-25T02:37:26.440Z,6.40
2018-09-25T02:39:34.409Z,6.40
2018-09-25T02:41:42.107Z,6.40
2018-09-25T02:43:50.013Z,6.40
2018-09-25T02:45:57.893Z,6.30
2018-09-25T02:48:05.789Z,6.30
2018-09-25T02:50:13.657Z,6.30
2018-09-25T02:52:21.514Z,6.30
2018-09-25T02:54:29.404Z,6.30
2018-09-25T02:56:37.302Z,6.30
2018-09-25T02:58:45.133Z,6.30
2018-09-25T03:00:52.874Z,6.30
2018-09-25T03:03:00.790Z,6.30
2018-09-25T03:05:08.579Z,6.30
2018-09-25T03:07:16.511Z,6.30
2018-09-25T03:09:24.288Z,6.30
2018-09-25T03:11:31.988Z,6.30
2018-09-25T03:13:39.844Z,6.30
2018-09-25T03:15:47.656Z,6.30
2018-09-25T03:17:55.508Z,6.30
2018-09-25T03:20:03.321Z,6.30
2018-09-25T03:22:11.100Z,6.30
2018-09-25T03:24:18.930Z,6.30
2018-09-25T03:26:26.637Z,6.30
2018-09-25T03:28:34.308Z,6.30
2018-09-25T03:30:42.165Z,6.30
2018-09-25T03:32:50.032Z,6.40
2018-09-25T03:34:57.808Z,6.40
2018-09-25T03:37:05.569Z,6.40
2018-09-25T03:39:13.484Z,6.40
2018-09-25T03:41:21.294Z,6.30
2018-09-25T03:43:29.134Z,6.30
2018-09-25T03:45:37.122Z,6.30
2018-09-25T03:47:44.909Z,6.30
2018-09-25T03:49:52.644Z,6.30
2018-09-25T03:52:00.550Z,6.30
2018-09-25T03:54:08.520Z,6.30
2018-09-25T03:56:16.364Z,6.30
2018-09-25T03:58:24.260Z,6.30
2018-09-25T04:00:32.172Z,6.40
2018-09-25T04:02:40.032Z,6.30
2018-09-25T04:04:47.923Z,6.30
2018-09-25T04:06:55.618Z,6.30
2018-09-25T04:09:03.464Z,6.30
2018-09-25T04:11:11.346Z,6.30
2018-09-25T04:13:19.172Z,6.30
2018-09-25T04:15:27.030Z,6.30
2018-09-25T04:17:34.881Z,6.30
2018-09-25T04:19:42.800Z,6.30
2018-09-25T04:21:50.674Z,6.30
2018-09-25T04:23:58.505Z,6.30
2018-09-25T04:26:06.437Z,6.30
2018-09-25T04:28:14.373Z,6.30
2018-09-25T04:30:22.201Z,6.30
2018-09-25T04:32:30.028Z,6.30
2018-09-25T04:34:37.996Z,6.30
2018-09-25T04:36:45.856Z,6.30
2018-09-25T04:38:53.578Z,6.30
2018-09-25T04:41:01.601Z,6.30
2018-09-25T04:43:09.437Z,6.30
2018-09-25T04:45:17.384Z,6.40
2018-09-25T04:47:25.219Z,6.40
2018-09-25T04:49:33.069Z,6.50
2018-09-25T04:51:41.027Z,6.50
2018-09-25T04:53:48.893Z,6.50
2018-09-25T04:55:56.813Z,6.60
2018-09-25T04:58:04.590Z,6.60
2018-09-25T05:00:12.473Z,6.70
2018-09-25T05:02:20.341Z,6.70
2018-09-25T05:04:28.092Z,6.70
2018-09-25T05:06:35.994Z,6.80
2018-09-25T05:08:43.937Z,6.80
2018-09-25T05:10:51.775Z,6.80
2018-09-25T05:12:59.678Z,6.80
2018-09-25T05:15:07.521Z,6.80
2018-09-25T05:17:15.303Z,6.80
2018-09-25T05:19:23.098Z,6.90
2018-09-25T05:21:30.920Z,6.90
2018-09-25T05:23:38.977Z,7.00
2018-09-25T05:25:46.913Z,7.00
2018-09-25T05:27:54.828Z,7.00
2018-09-25T05:30:02.857Z,7.10
2018-09-25T05:32:10.980Z,7.10
2018-09-25T05:34:19.080Z,7.20
2018-09-25T05:36:26.947Z,7.20
2018-09-25T05:38:34.845Z,7.20
2018-09-25T05:40:43.025Z,7.30
2018-09-25T05:42:51.000Z,7.30
2018-09-25T05:44:58.901Z,7.30
2018-09-25T05:47:06.781Z,7.30
2018-09-25T05:49:14.665Z,7.40
2018-09-25T05:51:22.591Z,7.40
2018-09-25T05:53:30.551Z,7.50
2018-09-25T05:55:38.766Z,7.50
2018-09-25T05:57:46.657Z,7.50
2018-09-25T05:59:54.641Z,7.50
2018-09-25T06:02:02.801Z,7.60
2018-09-25T06:04:11.669Z,7.60
2018-09-25T06:06:20.181Z,7.60
2018-09-25T06:08:28.445Z,7.60
2018-09-25T06:10:36.389Z,7.60
2018-09-25T06:12:44.353Z,7.60
2018-09-25T06:14:52.322Z,7.70
2018-09-25T06:17:00.443Z,7.80
2018-09-25T06:19:08.401Z,7.80
2018-09-25T06:21:16.427Z,7.90
2018-09-25T06:23:24.394Z,7.90
2018-09-25T06:25:33.047Z,7.90
2018-09-25T06:27:40.921Z,8.00
2018-09-25T06:29:48.964Z,8.10
2018-09-25T06:31:57.157Z,8.20
2018-09-25T06:34:05.377Z,8.30
2018-09-25T06:36:14.998Z,8.40
2018-09-25T06:38:23.003Z,8.60
2018-09-25T06:40:31.085Z,8.60
2018-09-25T06:42:39.484Z,8.70
2018-09-25T06:44:47.760Z,8.80
2018-09-25T06:46:56.164Z,9.00
2018-09-25T06:49:04.569Z,9.20
2018-09-25T06:51:13.087Z,9.70
2018-09-25T06:53:21.424Z,10.20
2018-09-25T06:55:29.550Z,10.60
2018-09-25T06:57:37.664Z,10.50
2018-09-25T06:59:45.753Z,10.40
2018-09-25T07:01:53.793Z,10.20
2018-09-25T07:04:01.810Z,10.10
2018-09-25T07:06:10.247Z,10.20
2018-09-25T07:08:18.213Z,10.10
2018-09-25T07:10:26.575Z,10.10
2018-09-25T07:12:34.565Z,10.00
2018-09-25T07:14:42.782Z,10.00
2018-09-25T07:16:50.806Z,10.00
2018-09-25T07:18:58.863Z,9.90
2018-09-25T07:21:07.703Z,9.90
2018-09-25T07:23:16.506Z,9.70
2018-09-25T07:25:24.744Z,9.60
2018-09-25T07:27:32.747Z,9.60
2018-09-25T07:29:40.605Z,9.50
2018-09-25T07:31:48.688Z,9.40
2018-09-25T07:33:56.790Z,9.50
2018-09-25T07:36:04.730Z,9.50
2018-09-25T07:38:12.765Z,9.50
2018-09-25T07:40:20.703Z,9.60
2018-09-25T07:42:28.761Z,10.10
2018-09-25T07:44:36.848Z,10.10
2018-09-25T07:46:45.402Z,11.10
2018-09-25T07:48:53.523Z,11.90
2018-09-25T07:51:01.802Z,12.30
2018-09-25T07:53:09.933Z,11.90
2018-09-25T07:55:17.909Z,11.70
2018-09-25T07:57:26.090Z,11.40
2018-09-25T07:59:34.297Z,11.10
2018-09-25T08:01:42.343Z,10.80
2018-09-25T08:03:50.933Z,10.60
2018-09-25T08:05:58.876Z,10.60
2018-09-25T08:08:07.340Z,10.90
2018-09-25T08:10:15.193Z,12.10
2018-09-25T08:12:23.233Z,12.80
2018-09-25T08:14:31.486Z,13.30
2018-09-25T08:16:39.625Z,13.40
2018-09-25T08:18:48.069Z,13.10
2018-09-25T08:20:56.513Z,13.60
2018-09-25T08:23:07.602Z,13.80
2018-09-25T08:25:25.861Z,14.30
2018-09-25T08:27:34.550Z,14.80
2018-09-25T08:29:43.772Z,14.90
2018-09-25T08:31:52.100Z,14.80
2018-09-25T08:34:02.251Z,15.30
2018-09-25T08:36:10.477Z,15.60
2018-09-25T08:38:19.045Z,16.00
2018-09-25T08:40:34.266Z,16.10
2018-09-25T08:42:42.523Z,16.60
2018-09-25T08:44:50.589Z,16.60
2018-09-25T08:46:58.801Z,16.20
2018-09-25T08:49:06.644Z,15.80
2018-09-25T08:51:14.494Z,15.20
2018-09-25T08:53:22.408Z,15.20
2018-09-25T08:55:30.932Z,15.60
2018-09-25T08:57:39.091Z,15.90
2018-09-25T08:59:48.320Z,15.90
2018-09-25T09:01:58.252Z,16.30
2018-09-25T09:04:06.586Z,16.60
2018-09-25T09:06:26.527Z,17.20
2018-09-25T09:08:35.902Z,17.50
2018-09-25T09:10:49.424Z,17.70
2018-09-25T09:12:57.919Z,17.80
2018-09-25T09:15:06.934Z,18.20
2018-09-25T09:17:15.097Z,18.60
2018-09-25T09:19:23.302Z,18.70
2018-09-25T09:21:31.400Z,19.10
2018-09-25T09:23:39.389Z,19.30
2018-09-25T09:25:47.363Z,19.90
2018-09-25T09:27:55.358Z,20.20
2018-09-25T09:30:03.379Z,20.30
2018-09-25T09:32:11.299Z,20.60
2018-09-25T09:34:19.339Z,19.60
2018-09-25T09:36:27.258Z,18.90
2018-09-25T09:38:35.266Z,18.60
2018-09-25T09:40:43.076Z,18.20
2018-09-25T09:42:50.953Z,17.80
2018-09-25T09:44:59.104Z,18.80
2018-09-25T09:47:07.069Z,19.70
2018-09-25T09:49:15.061Z,19.20
2018-09-25T09:51:23.086Z,19.90
2018-09-25T09:53:31.089Z,20.30
2018-09-25T09:55:38.988Z,20.80
2018-09-25T09:57:46.898Z,21.00
2018-09-25T09:59:54.787Z,20.80
2018-09-25T10:02:02.870Z,20.30
2018-09-25T10:04:11.222Z,21.50
2018-09-25T10:06:19.440Z,21.20
2018-09-25T10:08:27.854Z,21.40
2018-09-25T10:10:35.853Z,21.60
2018-09-25T10:12:44.036Z,21.50
2018-09-25T10:14:52.210Z,21.50
2018-09-25T10:17:01.467Z,21.60
2018-09-25T10:19:09.434Z,22.00
2018-09-25T10:21:17.543Z,22.20
2018-09-25T10:23:25.420Z,22.10
2018-09-25T10:25:33.340Z,22.30
2018-09-25T10:27:41.241Z,22.60
2018-09-25T10:29:49.063Z,22.90
2018-09-25T10:31:57.026Z,23.00
2018-09-25T10:34:04.885Z,22.30
2018-09-25T10:36:12.703Z,22.90
2018-09-25T10:38:20.718Z,23.30
2018-09-25T10:40:28.557Z,22.90
2018-09-25T10:42:36.358Z,23.20
2018-09-25T10:44:44.110Z,23.20
2018-09-25T10:46:52.057Z,22.70
2018-09-25T10:48:59.922Z,23.20
2018-09-25T10:51:07.829Z,23.50
2018-09-25T10:53:15.742Z,23.80
2018-09-25T10:55:23.696Z,23.90
2018-09-25T10:57:31.589Z,24.00
2018-09-25T10:59:39.509Z,23.70
2018-09-25T11:01:47.461Z,24.20
2018-09-25T11:04:02.402Z,24.30
2018-09-25T11:06:10.345Z,24.00
2018-09-25T11:08:18.251Z,24.40
2018-09-25T11:10:26.106Z,24.70
2018-09-25T11:12:33.969Z,23.80
2018-09-25T11:14:41.920Z,24.20
2018-09-25T11:16:49.849Z,24.00
2018-09-25T11:18:57.769Z,24.30
2018-09-25T11:21:05.733Z,24.10
2018-09-25T11:23:13.642Z,22.60
2018-09-25T11:25:29.750Z,21.80
2018-09-25T11:27:38.940Z,21.10
2018-09-25T11:29:46.761Z,20.50
2018-09-25T11:31:57.810Z,19.90
2018-09-25T11:34:07.073Z,19.60
2018-09-25T11:36:18.756Z,20.20
2018-09-25T11:38:26.553Z,20.30
2018-09-25T11:40:37.389Z,21.50
2018-09-25T11:42:45.652Z,22.00
2018-09-25T11:44:53.513Z,22.80
2018-09-25T11:47:02.186Z,23.50
2018-09-25T11:49:10.635Z,23.80
2018-09-25T11:51:19.529Z,22.40
2018-09-25T11:53:29.702Z,22.00
2018-09-25T11:55:39.621Z,21.40
2018-09-25T11:57:50.018Z,20.60
2018-09-25T12:00:02.118Z,20.30
2018-09-25T12:02:11.053Z,19.80
2018-09-25T12:04:18.905Z,19.50
2018-09-25T12:06:26.820Z,19.00
2018-09-25T12:08:34.670Z,19.00
2018-09-25T12:10:43.561Z,18.80
2018-09-25T12:12:51.350Z,18.50
2018-09-25T12:14:59.608Z,18.80
2018-09-25T12:17:07.613Z,18.30
2018-09-25T12:19:16.282Z,18.40
2018-09-25T12:21:26.159Z,18.30
2018-09-25T12:23:34.093Z,18.10
2018-09-25T12:25:42.154Z,18.90
2018-09-25T12:27:50.062Z,19.30
2018-09-25T12:29:58.913Z,19.20
2018-09-25T12:32:08.474Z,20.60
2018-09-25T12:34:16.499Z,21.40
2018-09-25T12:36:24.301Z,22.00
2018-09-25T12:38:32.490Z,22.80
2018-09-25T12:40:43.835Z,23.20
2018-09-25T12:42:52.102Z,23.30
2018-09-25T12:45:00.205Z,23.20
2018-09-25T12:47:08.062Z,22.60
2018-09-25T12:49:15.930Z,22.60
2018-09-25T12:51:24.727Z,23.20
2018-09-25T12:53:32.509Z,23.40
2018-09-25T12:55:40.433Z,24.00
2018-09-25T12:57:48.183Z,24.50
2018-09-25T12:59:57.741Z,24.60
2018-09-25T13:02:06.752Z,23.20
2018-09-25T13:04:16.848Z,22.60
2018-09-25T13:06:25.657Z,21.70
2018-09-25T13:08:33.477Z,21.20
2018-09-25T13:10:43.025Z,20.80
2018-09-25T13:12:52.053Z,20.00
2018-09-25T13:14:59.915Z,20.80
2018-09-25T13:17:08.781Z,21.40
2018-09-25T13:19:16.574Z,20.60
2018-09-25T13:21:24.349Z,20.00
2018-09-25T13:23:32.141Z,19.70
2018-09-25T13:25:41.319Z,20.50
2018-09-25T13:27:49.210Z,21.00
2018-09-25T13:29:57.138Z,21.50
2018-09-25T13:32:04.971Z,21.80
2018-09-25T13:34:12.833Z,22.10
2018-09-25T13:36:20.649Z,22.20
2018-09-25T13:38:28.525Z,22.50
2018-09-25T13:40:36.415Z,22.70
2018-09-25T13:42:44.350Z,22.80
2018-09-25T13:44:52.297Z,23.20
2018-09-25T13:47:01.674Z,23.30
2018-09-25T13:49:09.913Z,22.50
2018-09-25T13:51:17.849Z,21.80
2018-09-25T13:53:25.830Z,22.00
2018-09-25T13:55:34.278Z,22.10
2018-09-25T13:57:43.643Z,22.10
2018-09-25T13:59:57.693Z,22.20
2018-09-25T14:02:21.023Z,22.30
2018-09-25T14:04:28.927Z,22.50
2018-09-25T14:06:37.621Z,22.40
2018-09-25T14:08:45.612Z,21.60
2018-09-25T14:10:54.403Z,21.30
2018-09-25T14:13:04.641Z,21.40
2018-09-25T14:15:13.465Z,20.90
2018-09-25T14:17:21.311Z,21.20
2018-09-25T14:19:30.481Z,21.30
2018-09-25T14:21:38.346Z,21.70
2018-09-25T14:23:46.277Z,21.80
2018-09-25T14:25:55.213Z,21.50
2018-09-25T14:28:04.390Z,21.00
2018-09-25T14:30:14.733Z,21.70
2018-09-25T14:32:22.509Z,21.70
2018-09-25T14:34:30.428Z,21.20
2018-09-25T14:36:39.381Z,21.40
2018-09-25T14:38:50.255Z,21.20
2018-09-25T14:40:58.269Z,21.10
2018-09-25T14:43:07.109Z,20.90
2018-09-25T14:45:15.037Z,21.40
2018-09-25T14:47:22.818Z,21.00
2018-09-25T14:49:30.834Z,20.50
2018-09-25T14:51:38.750Z,20.00
2018-09-25T14:53:46.693Z,20.10
2018-09-25T14:55:54.645Z,20.20
2018-09-25T14:58:02.571Z,20.00
2018-09-25T15:00:10.676Z,19.90
2018-09-25T15:02:18.596Z,20.20
2018-09-25T15:04:26.575Z,20.00
2018-09-25T15:06:34.431Z,20.40
2018-09-25T15:08:42.400Z,20.10
2018-09-25T15:10:50.300Z,19.60
2018-09-25T15:12:58.045Z,19.50
2018-09-25T15:15:05.873Z,19.50
2018-09-25T15:17:13.865Z,19.00
2018-09-25T15:19:21.792Z,19.10
2018-09-25T15:21:29.776Z,18.90
2018-09-25T15:23:38.670Z,18.80
2018-09-25T15:25:46.593Z,18.40
2018-09-25T15:27:54.491Z,18.10
2018-09-25T15:30:02.374Z,18.00
2018-09-25T15:32:10.248Z,17.70
2018-09-25T15:34:18.162Z,17.50
2018-09-25T15:36:26.025Z,17.40
2018-09-25T15:38:33.962Z,17.40
2018-09-25T15:40:41.938Z,17.40
2018-09-25T15:42:49.804Z,17.40
2018-09-25T15:44:57.737Z,17.30
2018-09-25T15:47:05.733Z,17.10
2018-09-25T15:49:13.627Z,17.10
2018-09-25T15:51:21.446Z,17.00
2018-09-25T15:53:29.384Z,17.00
2018-09-25T15:55:37.282Z,16.90
2018-09-25T15:57:45.178Z,17.00
2018-09-25T15:59:53.132Z,17.00
2018-09-25T16:02:01.001Z,17.00
2018-09-25T16:04:09.080Z,16.70
2018-09-25T16:06:27.280Z,16.60
2018-09-25T16:08:35.078Z,16.60
2018-09-25T16:10:42.870Z,16.40
2018-09-25T16:12:50.862Z,16.20
2018-09-25T16:14:58.856Z,16.00
2018-09-25T16:17:06.830Z,15.90
2018-09-25T16:19:14.800Z,15.70
2018-09-25T16:21:22.775Z,15.70
2018-09-25T20:31:27.665Z,10.10
2018-09-25T20:33:35.631Z,10.00
2018-09-25T20:35:43.599Z,10.00
2018-09-25T20:37:51.543Z,10.00
2018-09-25T20:39:59.477Z,10.00
2018-09-25T20:42:07.453Z,10.00
2018-09-25T20:44:15.425Z,10.10
2018-09-25T20:46:23.321Z,9.90
2018-09-25T20:48:31.097Z,9.80
2018-09-25T20:50:38.895Z,9.70
2018-09-25T20:52:46.814Z,9.70
2018-09-25T20:54:54.572Z,9.80
2018-09-25T20:57:02.621Z,9.80
2018-09-25T20:59:10.510Z,9.80
2018-09-25T21:01:18.512Z,9.70
2018-09-25T21:03:26.633Z,9.70
2018-09-25T21:05:34.586Z,9.70
2018-09-25T21:07:42.491Z,9.70
2018-09-25T21:09:50.486Z,9.70
2018-09-25T21:11:58.445Z,9.60
2018-09-25T21:14:06.229Z,9.50
2018-09-25T21:16:14.026Z,9.50
2018-09-25T21:18:22.009Z,9.60
2018-09-25T21:20:29.945Z,9.60
2018-09-25T21:22:37.813Z,9.60
2018-09-25T21:24:45.795Z,9.50
2018-09-25T21:26:53.743Z,9.50
2018-09-25T21:29:01.637Z,9.50
2018-09-25T21:31:09.688Z,9.40
2018-09-25T21:33:17.589Z,9.40
2018-09-25T21:35:25.526Z,9.50
2018-09-25T21:37:33.406Z,9.50
2018-09-25T21:39:41.289Z,9.50
2018-09-25T21:41:49.135Z,9.50
2018-09-25T21:43:57.031Z,9.50
2018-09-25T21:46:04.881Z,9.50
2018-09-25T21:48:12.713Z,9.40
2018-09-25T21:50:20.612Z,9.40
2018-09-25T21:52:28.570Z,9.40
2018-09-25T21:54:36.405Z,9.40
2018-09-25T21:56:44.347Z,9.40
2018-09-25T21:58:52.250Z,9.40
2018-09-25T22:01:00.071Z,9.40
2018-09-25T22:03:07.921Z,9.40
2018-09-25T22:05:15.789Z,9.30
2018-09-25T22:07:23.543Z,9.40
2018-09-25T22:09:31.448Z,9.40
2018-09-25T22:11:39.521Z,9.40
2018-09-25T22:13:47.426Z,9.40
2018-09-25T22:15:55.334Z,9.30
2018-09-25T22:18:03.349Z,9.40
2018-09-25T22:20:11.397Z,9.40
2018-09-25T22:22:19.507Z,9.40
2018-09-25T22:24:27.477Z,9.40
2018-09-25T22:26:35.424Z,9.30
2018-09-25T22:28:43.340Z,9.40
2018-09-25T22:30:51.361Z,9.30
2018-09-25T22:32:59.252Z,9.30
2018-09-25T22:35:07.139Z,9.20
2018-09-25T22:37:15.033Z,9.20
2018-09-25T22:39:23.017Z,9.10
2018-09-25T22:41:30.941Z,9.10
2018-09-25T22:43:38.911Z,9.00
2018-09-25T22:45:46.980Z,9.00
2018-09-25T22:47:54.934Z,9.00
2018-09-25T22:50:02.790Z,8.90
2018-09-25T22:52:10.749Z,8.90
2018-09-25T22:54:18.641Z,8.90
2018-09-25T22:56:26.516Z,8.90
2018-09-25T22:58:34.436Z,8.90
2018-09-25T23:00:42.416Z,8.80
2018-09-25T23:02:50.244Z,8.80
2018-09-25T23:04:58.117Z,8.80
2018-09-25T23:07:05.999Z,8.70
2018-09-25T23:09:13.901Z,8.60
2018-09-25T23:11:21.817Z,8.50
2018-09-25T23:13:29.726Z,8.60
2018-09-25T23:15:37.653Z,8.50
2018-09-25T23:17:45.549Z,8.60
2018-09-25T23:19:53.457Z,8.60
2018-09-25T23:22:01.382Z,8.60
2018-09-25T23:24:09.311Z,8.60
2018-09-25T23:26:17.131Z,8.60
2018-09-25T23:28:25.061Z,8.60
2018-09-25T23:30:32.941Z,8.60
2018-09-25T23:32:40.933Z,8.60
2018-09-25T23:34:48.817Z,8.50
2018-09-25T23:36:56.715Z,8.50
2018-09-25T23:39:04.629Z,8.50
2018-09-25T23:41:14.082Z,8.50
2018-09-25T23:43:23.810Z,8.50
2018-09-25T23:46:31.688Z,8.40
2018-09-25T23:48:39.473Z,8.40
2018-09-25T23:52:49.671Z,8.30
2018-09-25T23:54:55.365Z,8.30
2018-09-25T23:57:00.061Z,8.30
2018-09-25T23:59:11.821Z,8.30
